Time;durP1;ratioP1;P1;durP2;ratioP2;P2;SDS_P1;SDS_P2;PMS_P1;PMS_P2;Temp;Humidity;BMP_temperature;BMP_pressure;BME280_temperature;BME280_humidity;BME280_pressure;Samples;Min_cycle;Max_cycle;Signal;HPM_P1;HPM_P2
2023/04/26 00:02:07;;;;;;;9.85;4.75;;;;;;;11.74;63.44;99295.09;1782776;80;21162;-59
2023/04/26 00:04:38;;;;;;;8.40;4.30;;;;;;;11.68;63.50;99293.24;1745585;82;21144;-59
2023/04/26 00:07:08;;;;;;;9.78;5.00;;;;;;;11.62;63.67;99293.64;1783046;80;21151;-59
2023/04/26 00:09:40;;;;;;;9.85;4.90;;;;;;;11.61;63.93;99293.87;1782742;80;21087;-60
2023/04/26 00:12:10;;;;;;;8.18;5.22;;;;;;;11.58;64.04;99298.45;1782757;80;21194;-60
2023/04/26 00:14:40;;;;;;;9.60;4.90;;;;;;;11.52;64.33;99299.37;1782761;80;21091;-57
2023/04/26 00:17:09;;;;;;;9.33;4.92;;;;;;;11.48;64.60;99301.73;1745697;82;21131;-58
2023/04/26 00:19:39;;;;;;;9.88;5.50;;;;;;;11.46;64.81;99296.17;1782711;80;21138;-59
2023/04/26 00:22:09;;;;;;;10.58;5.92;;;;;;;11.42;64.94;99297.17;1782938;80;21562;-58
2023/04/26 00:24:39;;;;;;;8.95;5.70;;;;;;;11.39;65.06;99305.86;1745481;82;21611;-59
2023/04/26 00:27:09;;;;;;;9.73;5.37;;;;;;;11.36;65.14;99301.67;1783087;80;21635;-59
2023/04/26 00:29:38;;;;;;;9.25;5.20;;;;;;;11.33;65.25;99302.66;1745490;82;21127;-59
2023/04/26 00:32:08;;;;;;;10.88;5.67;;;;;;;11.30;65.44;99302.59;1782752;80;21181;-58
2023/04/26 00:34:38;;;;;;;8.90;5.03;;;;;;;11.29;65.56;99302.82;1745398;82;21240;-60
2023/04/26 00:37:07;;;;;;;11.55;5.03;;;;;;;11.28;65.71;99303.35;1782859;80;21120;-58
2023/04/26 00:39:37;;;;;;;9.03;4.70;;;;;;;11.26;65.87;99302.74;1745652;82;21186;-59
2023/04/26 00:42:07;;;;;;;9.48;5.22;;;;;;;11.27;65.96;99306.33;1782978;80;21146;-58
2023/04/26 00:44:39;;;;;;;9.83;5.83;;;;;;;11.24;65.94;99310.36;1745450;82;21151;-59
2023/04/26 00:47:08;;;;;;;10.10;5.17;;;;;;;11.19;66.05;99307.47;1782894;80;21134;-59
2023/04/26 00:49:37;;;;;;;9.13;5.12;;;;;;;11.19;66.28;99312.11;1745488;82;21162;-59
2023/04/26 00:52:08;;;;;;;9.30;4.78;;;;;;;11.18;66.35;99308.53;1782968;80;21577;-59
2023/04/26 00:54:37;;;;;;;12.88;5.45;;;;;;;11.17;66.44;99308.77;1745434;82;21183;-59
2023/04/26 00:57:09;;;;;;;9.58;4.92;;;;;;;11.15;66.52;99309.52;1745580;82;21111;-59
2023/04/26 00:59:37;;;;;;;9.35;5.50;;;;;;;11.12;66.69;99306.70;1782745;80;21229;-58
2023/04/26 01:02:07;;;;;;;11.73;5.25;;;;;;;11.06;66.90;99306.25;1745682;82;21162;-59
2023/04/26 01:04:38;;;;;;;11.90;5.30;;;;;;;11.02;67.10;99305.83;1782655;80;21154;-58
2023/04/26 01:07:09;;;;;;;10.48;5.28;;;;;;;11.01;67.22;99304.16;1782703;80;21154;-59
2023/04/26 01:09:39;;;;;;;9.65;5.33;;;;;;;10.98;67.43;99306.52;1745645;82;21182;-59
2023/04/26 01:12:09;;;;;;;12.40;5.75;;;;;;;10.96;67.62;99299.89;1782986;80;22097;-58
2023/04/26 01:14:39;;;;;;;8.90;4.90;;;;;;;10.95;67.81;99299.59;1745409;82;21131;-58
2023/04/26 01:17:09;;;;;;;10.20;4.67;;;;;;;10.94;68.00;99296.54;1782835;80;21547;-58
2023/04/26 01:19:48;;;;;;;6.45;4.50;;;;;;;10.92;68.14;99300.57;1782748;80;21095;-59
2023/04/26 01:22:17;;;;;;;;;;;;;;;10.89;68.26;99296.91;1748074;82;21154;-58
2023/04/26 01:24:51;;;;;;;8.05;4.75;;;;;;;10.87;68.44;99301.78;1714319;84;20152;-58
2023/04/26 01:27:20;;;;;;;9.18;5.05;;;;;;;10.87;68.57;99298.52;1782810;80;21154;-59
2023/04/26 01:29:50;;;;;;;11.65;4.90;;;;;;;10.87;68.70;99294.41;1745470;82;21142;-59
2023/04/26 01:32:21;;;;;;;8.53;4.67;;;;;;;10.84;68.84;99288.53;1782777;80;21181;-59
2023/04/26 01:34:51;;;;;;;9.53;4.62;;;;;;;10.84;69.02;99292.12;1745519;82;21146;-59
2023/04/26 01:37:20;;;;;;;6.85;4.35;;;;;;;10.85;69.19;99281.46;1782969;80;21091;-59
2023/04/26 01:39:50;;;;;;;8.70;4.58;;;;;;;10.89;69.22;99281.84;1745551;82;21091;-58
2023/04/26 01:42:22;;;;;;;6.60;4.45;;;;;;;10.89;69.22;99278.57;1782968;80;21119;-59
2023/04/26 01:44:53;;;;;;;18.50;5.30;;;;;;;10.91;69.36;99277.81;1745522;82;21162;-60
2023/04/26 01:47:25;;;;;;;9.38;4.25;;;;;;;10.93;69.47;99277.05;1745498;82;21183;-58
2023/04/26 01:49:54;;;;;;;5.20;3.95;;;;;;;10.97;69.59;99280.17;1782764;80;21147;-58
2023/04/26 01:52:24;;;;;;;9.93;4.90;;;;;;;11.00;69.68;99284.67;1745599;82;21151;-59
2023/04/26 01:54:53;;;;;;;10.78;4.70;;;;;;;11.01;69.76;99280.02;1776353;80;21178;-60
2023/04/26 01:57:22;;;;;;;8.38;4.53;;;;;;;11.03;69.79;99288.33;1774711;81;21111;-58
2023/04/26 01:59:54;;;;;;;10.00;4.05;;;;;;;11.05;69.80;99279.87;1774857;80;21213;-57
2023/04/26 02:02:23;;;;;;;12.43;4.03;;;;;;;11.10;69.86;99280.89;1774614;81;21518;-57
2023/04/26 02:04:53;;;;;;;7.60;4.12;;;;;;;11.16;70.19;99276.93;1774805;81;21134;-59
2023/04/26 02:07:24;;;;;;;7.20;3.62;;;;;;;11.21;70.62;99279.83;1774653;81;21131;-58
2023/04/26 02:09:56;;;;;;;8.23;3.95;;;;;;;11.22;71.27;99273.27;1774434;81;21159;-59
2023/04/26 02:12:25;;;;;;;8.95;3.80;;;;;;;11.21;71.67;99278.45;1774493;80;21162;-58
2023/04/26 02:14:56;;;;;;;8.30;4.08;;;;;;;11.22;72.13;99271.91;1774802;81;21178;-58
2023/04/26 02:17:26;;;;;;;5.70;3.58;;;;;;;11.25;72.79;99276.39;1774610;81;21519;-58
2023/04/26 02:19:55;;;;;;;9.53;3.80;;;;;;;11.25;73.17;99275.55;1774602;81;21123;-57
2023/04/26 02:22:25;;;;;;;5.60;4.10;;;;;;;11.23;73.78;99267.56;1774582;81;21119;-60
2023/04/26 02:24:55;;;;;;;6.85;4.20;;;;;;;11.24;74.19;99267.02;1774541;81;22008;-58
2023/04/26 02:27:26;;;;;;;6.20;4.10;;;;;;;11.25;74.65;99263.22;1774360;80;21107;-58
2023/04/26 02:29:56;;;;;;;6.78;4.40;;;;;;;11.27;75.08;99261.92;1774754;81;21162;-57
2023/04/26 02:32:25;;;;;;;7.95;4.10;;;;;;;11.25;75.77;99263.22;1774541;81;21162;-57
2023/04/26 02:34:55;;;;;;;6.55;4.20;;;;;;;11.23;76.52;99257.96;1774554;81;21162;-57
2023/04/26 02:37:25;;;;;;;7.30;4.22;;;;;;;11.23;77.21;99259.87;1774530;81;21499;-58
2023/04/26 02:39:55;;;;;;;9.68;4.60;;;;;;;11.19;77.75;99261.39;1774750;81;21111;-58
2023/04/26 02:42:25;;;;;;;7.55;5.00;;;;;;;11.19;78.44;99262.77;1774664;80;21606;-59
2023/04/26 02:44:55;;;;;;;7.65;4.62;;;;;;;11.17;78.97;99265.73;1774557;81;21091;-56
2023/04/26 02:47:25;;;;;;;7.22;4.65;;;;;;;11.18;79.33;99270.69;1753186;81;21118;-57
2023/04/26 02:49:54;;;;;;;5.83;4.20;;;;;;;11.19;79.64;99264.97;1752979;81;21182;-58
2023/04/26 02:52:24;;;;;;;6.80;4.03;;;;;;;11.20;79.88;99261.70;1774681;80;21566;-59
2023/04/26 02:54:54;;;;;;;7.75;4.00;;;;;;;11.22;79.89;99261.77;1774463;80;21114;-57
2023/04/26 02:57:23;;;;;;;6.60;4.40;;;;;;;11.25;79.49;99259.94;1774542;81;21162;-56
2023/04/26 02:59:54;;;;;;;7.20;4.58;;;;;;;11.27;79.37;99262.45;1774496;81;21115;-56
2023/04/26 03:02:23;;;;;;;7.00;4.62;;;;;;;11.24;79.30;99258.27;1774520;80;21095;-57
2023/04/26 03:04:53;;;;;;;6.95;4.92;;;;;;;11.22;79.32;99259.03;1774620;81;21186;-57
2023/04/26 03:07:22;;;;;;;8.55;5.25;;;;;;;11.23;79.63;99250.27;1774736;80;21573;-56
2023/04/26 03:09:51;;;;;;;9.25;5.50;;;;;;;11.26;79.67;99255.30;1774650;80;21518;-57
2023/04/26 03:12:20;;;;;;;10.30;5.00;;;;;;;11.29;79.54;99257.58;1774721;81;21158;-57
2023/04/26 03:14:50;;;;;;;7.50;5.40;;;;;;;11.30;79.52;99260.09;1774529;81;21655;-57
2023/04/26 03:17:19;;;;;;;8.75;5.28;;;;;;;11.33;79.55;99247.82;1774766;81;21087;-57
2023/04/26 03:19:48;;;;;;;8.00;4.75;;;;;;;11.33;79.72;99250.03;1752772;81;21154;-57
2023/04/26 03:22:20;;;;;;;9.63;5.80;;;;;;;11.31;79.87;99255.44;1774547;81;21151;-57
2023/04/26 03:24:50;;;;;;;7.42;5.47;;;;;;;11.30;80.23;99260.63;1774598;81;21320;-58
2023/04/26 03:27:19;;;;;;;11.08;5.67;;;;;;;11.29;80.67;99263.06;1774499;81;21198;-60
2023/04/26 03:29:49;;;;;;;11.35;5.65;;;;;;;11.26;81.09;99260.24;1774621;81;21162;-57
2023/04/26 03:32:19;;;;;;;8.33;5.72;;;;;;;11.23;81.48;99260.70;1774556;81;21138;-58
2023/04/26 03:34:49;;;;;;;10.88;5.40;;;;;;;11.23;81.75;99261.23;1774569;80;21612;-57
2023/04/26 03:37:18;;;;;;;11.68;5.00;;;;;;;11.23;81.78;99254.39;1774831;81;21142;-57
2023/04/26 03:39:51;;;;;;;9.20;5.05;;;;;;;11.25;82.07;99252.25;1774223;80;21170;-57
2023/04/26 03:42:21;;;;;;;9.18;4.85;;;;;;;11.24;82.21;99246.47;1774533;81;21123;-56
2023/04/26 03:44:51;;;;;;;6.83;4.75;;;;;;;11.22;82.49;99249.97;1774690;81;21114;-58
2023/04/26 03:47:23;;;;;;;8.65;5.00;;;;;;;11.22;82.67;99251.34;1774821;80;21566;-57
2023/04/26 03:49:52;;;;;;;8.35;5.12;;;;;;;11.18;82.80;99248.22;1774642;81;21546;-57
2023/04/26 03:52:22;;;;;;;11.53;5.05;;;;;;;11.17;82.98;99252.03;1774545;80;21581;-63
2023/04/26 03:54:51;;;;;;;11.00;5.90;;;;;;;11.20;83.33;99246.09;1774516;81;21207;-57
2023/04/26 03:57:21;;;;;;;11.68;5.15;;;;;;;11.17;83.47;99242.44;1774538;81;21115;-58
2023/04/26 03:59:52;;;;;;;6.67;4.65;;;;;;;11.17;83.67;99236.95;1774540;81;21523;-58
2023/04/26 04:02:22;;;;;;;12.37;5.55;;;;;;;11.17;83.90;99241.06;1774562;81;21122;-56
2023/04/26 04:04:52;;;;;;;7.80;5.03;;;;;;;11.18;83.89;99237.79;1774447;81;21159;-58
2023/04/26 04:07:22;;;;;;;9.30;5.08;;;;;;;11.21;84.07;99240.91;1774551;81;21146;-58
2023/04/26 04:09:51;;;;;;;9.70;5.47;;;;;;;11.22;84.11;99234.89;1774571;81;21115;-56
2023/04/26 04:12:21;;;;;;;10.70;5.85;;;;;;;11.23;84.27;99236.56;1774484;81;21111;-59
2023/04/26 04:14:52;;;;;;;8.15;5.70;;;;;;;11.24;84.46;99249.20;1774520;81;21581;-56
2023/04/26 04:17:27;;;;;;;11.10;7.50;;;;;;;11.26;84.71;99254.77;1774506;80;21623;-57
2023/04/26 04:19:57;;;;;;;12.55;6.55;;;;;;;11.30;84.93;99251.02;1774624;80;21131;-58
2023/04/26 04:22:27;;;;;;;10.98;6.62;;;;;;;11.33;85.19;99240.43;1774660;81;21120;-58
2023/04/26 04:24:57;;;;;;;13.25;7.45;;;;;;;11.39;85.12;99238.14;1774704;81;21119;-58
2023/04/26 04:27:27;;;;;;;17.35;7.15;;;;;;;11.46;85.05;99234.47;1774474;80;21154;-57
2023/04/26 04:29:56;;;;;;;13.13;9.03;;;;;;;11.49;84.97;99237.58;1774472;81;21131;-58
2023/04/26 04:32:26;;;;;;;10.95;6.67;;;;;;;11.51;84.76;99235.44;1774460;81;21119;-58
2023/04/26 04:34:58;;;;;;;9.65;6.12;;;;;;;11.53;84.36;99236.05;1774948;81;21126;-58
2023/04/26 04:37:27;;;;;;;11.80;6.30;;;;;;;11.57;84.15;99230.39;1774546;81;21146;-57
2023/04/26 04:39:57;;;;;;;12.75;6.20;;;;;;;11.64;83.82;99230.30;1774473;80;21547;-59
2023/04/26 04:42:27;;;;;;;8.90;6.62;;;;;;;11.68;83.37;99229.60;1774586;81;21111;-60
2023/04/26 04:44:58;;;;;;;9.93;6.42;;;;;;;11.71;82.76;99229.70;1774493;81;21178;-58
2023/04/26 04:47:30;;;;;;;9.08;5.45;;;;;;;11.73;82.17;99233.88;1774553;81;21219;-57
2023/04/26 04:50:00;;;;;;;9.00;5.30;;;;;;;11.77;81.30;99239.73;1774492;81;21551;-57
2023/04/26 04:52:32;;;;;;;8.35;5.25;;;;;;;11.80;80.28;99235.72;1774414;81;21107;-58
2023/04/26 04:55:02;;;;;;;12.05;5.47;;;;;;;11.84;79.55;99241.05;1775644;80;21127;-57
2023/04/26 04:57:36;;;;;;;14.40;6.62;;;;;;;11.85;78.74;99237.23;1774314;80;21147;-59
2023/04/26 05:00:11;;;;;;;7.12;4.92;;;;;;;11.84;78.62;99243.25;1774397;81;21162;-58
2023/04/26 05:02:40;;;;;;;13.38;6.10;;;;;;;11.82;78.49;99249.52;1773965;80;21083;-59
2023/04/26 05:05:11;;;;;;;7.30;5.20;;;;;;;11.84;78.59;99254.77;1774495;81;21130;-59
2023/04/26 05:07:41;;;;;;;9.33;5.75;;;;;;;11.86;78.66;99258.11;1753158;81;21163;-58
2023/04/26 05:10:12;;;;;;;9.68;5.75;;;;;;;11.90;78.72;99253.83;1774583;81;21115;-59
2023/04/26 05:12:42;;;;;;;10.43;5.85;;;;;;;11.92;78.72;99248.94;1774517;81;21565;-58
2023/04/26 05:15:12;;;;;;;7.87;4.92;;;;;;;11.96;78.88;99259.22;1774728;81;21115;-59
2023/04/26 05:17:42;;;;;;;10.80;5.10;;;;;;;11.96;78.40;99256.47;1774545;81;21546;-58
2023/04/26 05:20:16;;;;;;;5.87;4.47;;;;;;;11.98;78.15;99250.75;1774311;80;21099;-59
2023/04/26 05:22:46;;;;;;;8.98;5.03;;;;;;;12.00;77.87;99259.05;1774708;81;21123;-58
2023/04/26 05:25:16;;;;;;;8.58;5.08;;;;;;;12.00;77.73;99252.19;1774533;81;21217;-58
2023/04/26 05:27:50;;;;;;;11.60;4.97;;;;;;;12.00;77.97;99255.47;1774754;80;21146;-58
2023/04/26 05:30:23;;;;;;;7.42;4.60;;;;;;;12.00;78.00;99255.47;1726301;80;21191;-57
2023/04/26 05:33:07;;;;;;;7.85;4.90;;;;;;;12.06;78.22;99258.11;1773531;80;21087;-58
2023/04/26 05:35:45;;;;;;;8.15;4.70;;;;;;;12.15;78.29;99259.14;1774112;80;21645;-58
2023/04/26 05:38:17;;;;;;;6.92;4.60;;;;;;;12.21;77.87;99248.59;1774867;80;21564;-57
2023/04/26 05:40:47;;;;;;;11.35;5.35;;;;;;;12.25;77.54;99256.11;1774594;81;21550;-58
2023/04/26 05:43:16;;;;;;;8.25;4.75;;;;;;;12.29;76.78;99256.47;1774553;80;21142;-58
2023/04/26 05:45:55;;;;;;;9.30;4.67;;;;;;;12.29;76.23;99256.47;1774596;81;21572;-60
2023/04/26 05:48:26;;;;;;;10.30;5.03;;;;;;;12.27;76.09;99249.84;1774984;81;21159;-60
2023/04/26 05:50:55;;;;;;;11.10;4.87;;;;;;;12.31;76.07;99254.33;1774633;80;21150;-58
2023/04/26 05:53:26;;;;;;;11.50;4.70;;;;;;;12.35;76.05;99252.78;1774634;81;21131;-58
2023/04/26 05:55:58;;;;;;;9.90;4.30;;;;;;;12.40;75.52;99254.31;1774853;80;21142;-58
2023/04/26 05:58:28;;;;;;;12.63;4.55;;;;;;;12.42;75.16;99251.33;1752215;80;21581;-58
2023/04/26 06:00:57;;;;;;;11.80;4.47;;;;;;;12.40;74.72;99257.05;1752318;80;21165;-58
2023/04/26 06:03:27;;;;;;;9.93;4.70;;;;;;;12.40;74.49;99257.59;1745450;82;21123;-59
2023/04/26 06:05:58;;;;;;;9.20;4.55;;;;;;;12.41;74.68;99251.02;1782752;80;21118;-58
2023/04/26 06:08:30;;;;;;;20.80;5.60;;;;;;;12.44;74.61;99256.05;1745504;82;21163;-58
2023/04/26 06:10:59;;;;;;;9.70;4.40;;;;;;;12.45;74.50;99251.69;1782802;80;21134;-60
2023/04/26 06:13:30;;;;;;;8.85;4.50;;;;;;;12.49;74.34;99258.91;1745549;82;21170;-60
2023/04/26 06:15:59;;;;;;;10.38;5.10;;;;;;;12.50;73.99;99257.30;1782693;80;21616;-58
2023/04/26 06:18:29;;;;;;;11.40;4.45;;;;;;;12.50;73.74;99254.55;1745814;82;21515;-60
2023/04/26 06:20:58;;;;;;;9.73;5.25;;;;;;;12.58;74.11;99257.48;1745502;82;21134;-58
2023/04/26 06:23:28;;;;;;;11.33;5.35;;;;;;;12.64;73.88;99252.41;1745512;82;21207;-59
2023/04/26 06:25:58;;;;;;;16.62;5.25;;;;;;;12.67;73.53;99250.55;1745551;82;21123;-59
2023/04/26 06:28:27;;;;;;;12.45;5.45;;;;;;;12.72;73.36;99257.54;1745414;82;21127;-60
2023/04/26 06:30:56;;;;;;;15.05;6.12;;;;;;;12.77;73.12;99256.82;1782713;80;21127;-61
2023/04/26 06:33:25;;;;;;;11.95;5.12;;;;;;;12.80;72.89;99250.30;1745451;82;21342;-60
2023/04/26 06:35:55;;;;;;;12.65;5.50;;;;;;;12.87;72.72;99263.92;1745754;82;21107;-59
2023/04/26 06:38:24;;;;;;;10.72;5.30;;;;;;;12.88;72.49;99256.81;1782779;80;21640;-59
2023/04/26 06:40:54;;;;;;;8.80;4.20;;;;;;;12.91;72.38;99258.23;1745544;82;21127;-60
2023/04/26 06:43:24;;;;;;;15.58;5.15;;;;;;;12.91;72.33;99256.33;1782726;80;21213;-59
2023/04/26 06:46:03;;;;;;;9.38;4.03;;;;;;;12.91;72.03;99256.33;1782842;80;21107;-59
2023/04/26 06:48:33;;;;;;;5.87;4.17;;;;;;;12.94;71.87;99267.38;1745553;82;21162;-59
2023/04/26 06:51:07;;;;;;;10.80;4.20;;;;;;;12.96;71.70;99262.48;1745837;82;21202;-57
2023/04/26 06:53:36;;;;;;;8.23;4.25;;;;;;;13.03;71.64;99266.50;1782704;80;21090;-58
2023/04/26 06:56:08;;;;;;;9.13;4.00;;;;;;;13.06;71.21;99261.89;1782859;80;21107;-60
2023/04/26 06:58:37;;;;;;;11.35;4.17;;;;;;;13.07;71.01;99264.95;1749397;82;21166;-59
2023/04/26 07:01:08;;;;;;;9.08;3.70;;;;;;;13.11;71.10;99264.76;1749213;82;21106;-58
2023/04/26 07:03:41;;;;;;;9.95;4.15;;;;;;;13.13;70.26;99267.56;1749165;82;21286;-60
2023/04/26 07:06:11;;;;;;;9.50;4.17;;;;;;;13.16;70.14;99263.49;1749448;82;21186;-59
2023/04/26 07:08:41;;;;;;;10.53;4.05;;;;;;;13.21;69.69;99264.47;1749172;82;21608;-59
2023/04/26 07:11:12;;;;;;;10.25;3.70;;;;;;;13.26;69.37;99256.86;1749431;82;21102;-58
2023/04/26 07:13:41;;;;;;;9.23;4.25;;;;;;;13.33;69.15;99260.31;1749129;82;21158;-59
2023/04/26 07:16:11;;;;;;;10.23;4.65;;;;;;;13.43;68.68;99252.80;1749286;82;21158;-60
2023/04/26 07:18:41;;;;;;;9.50;3.92;;;;;;;13.52;68.33;99250.80;1713499;84;21178;-60
2023/04/26 07:21:11;;;;;;;8.45;3.50;;;;;;;13.64;68.35;99248.83;1688383;85;21182;-59
2023/04/26 07:23:41;;;;;;;10.95;4.47;;;;;;;13.80;67.80;99249.98;1713535;84;21108;-59
2023/04/26 07:26:11;;;;;;;9.13;4.17;;;;;;;13.89;66.56;99246.30;1704387;84;21182;-60
2023/04/26 07:28:40;;;;;;;9.80;4.75;;;;;;;13.98;65.93;99247.56;1701410;84;21174;-58
2023/04/26 07:31:11;;;;;;;9.38;4.35;;;;;;;14.14;65.92;99254.17;1701391;84;22189;-60
2023/04/26 07:33:43;;;;;;;8.93;4.22;;;;;;;14.27;65.24;99247.80;1701207;84;21178;-59
2023/04/26 07:36:12;;;;;;;13.25;4.40;;;;;;;14.45;64.58;99255.58;1701124;84;21160;-59
2023/04/26 07:38:42;;;;;;;14.00;5.08;;;;;;;14.56;63.86;99255.49;1701231;84;21142;-60
2023/04/26 07:41:11;;;;;;;15.03;4.75;;;;;;;14.66;63.43;99258.95;1701246;84;21137;-60
2023/04/26 07:43:42;;;;;;;9.70;4.30;;;;;;;14.81;62.96;99263.86;1701145;84;21186;-59
2023/04/26 07:46:13;;;;;;;11.83;4.35;;;;;;;15.02;62.63;99260.88;1701147;84;21146;-60
2023/04/26 07:48:42;;;;;;;11.48;4.70;;;;;;;15.30;62.53;99257.95;1701139;84;21130;-59
2023/04/26 07:51:13;;;;;;;17.23;5.00;;;;;;;15.62;61.71;99276.07;1701188;84;21602;-59
2023/04/26 07:53:42;;;;;;;8.00;4.17;;;;;;;15.84;60.36;99268.59;1705079;83;21128;-61
2023/04/26 07:56:12;;;;;;;8.65;4.60;;;;;;;16.07;60.17;99274.90;1701402;83;21635;-62
2023/04/26 07:58:42;;;;;;;10.72;4.67;;;;;;;16.40;60.06;99268.33;1722846;83;21163;-60
2023/04/26 08:01:11;;;;;;;8.08;4.40;;;;;;;16.80;58.76;99263.14;1724568;83;21131;-62
2023/04/26 08:03:42;;;;;;;9.43;4.40;;;;;;;17.20;57.29;99271.44;1774337;80;21511;-63
2023/04/26 08:06:12;;;;;;;9.63;4.58;;;;;;;17.52;55.49;99260.78;1774418;81;21159;-62
2023/04/26 08:08:44;;;;;;;14.78;4.90;;;;;;;17.78;54.47;99268.69;1774448;81;21194;-62
2023/04/26 08:11:12;;;;;;;10.75;5.30;;;;;;;18.10;54.57;99265.72;1774485;81;21131;-62
2023/04/26 08:13:45;;;;;;;7.33;4.62;;;;;;;18.42;52.00;99271.88;1774298;81;21119;-63
2023/04/26 08:16:14;;;;;;;9.10;4.97;;;;;;;18.44;52.06;99267.44;1774356;81;21202;-62
2023/04/26 08:18:43;;;;;;;9.35;4.50;;;;;;;18.50;51.95;99266.33;1774495;81;21116;-62
2023/04/26 08:21:14;;;;;;;12.95;5.45;;;;;;;18.49;51.10;99274.38;1774381;81;21139;-63
2023/04/26 08:23:43;;;;;;;10.25;4.50;;;;;;;18.33;51.28;99280.47;1774313;81;21151;-62
2023/04/26 08:26:13;;;;;;;15.13;5.00;;;;;;;18.07;51.63;99275.41;1774449;81;21155;-62
2023/04/26 08:28:42;;;;;;;9.50;4.75;;;;;;;17.77;52.10;99278.11;1796021;79;21143;-62
2023/04/26 08:31:13;;;;;;;9.53;4.50;;;;;;;17.47;53.07;99278.20;1806127;79;21100;-61
2023/04/26 08:33:44;;;;;;;9.50;5.00;;;;;;;17.15;53.61;99282.48;1737539;82;21824;-64
2023/04/26 08:36:12;;;;;;;14.43;5.35;;;;;;;16.90;54.53;99267.07;1805954;79;21147;-61
2023/04/26 08:38:41;;;;;;;11.43;4.92;;;;;;;16.73;55.18;99271.38;1806214;79;21158;-61
2023/04/26 08:41:17;;;;;;;8.80;4.78;;;;;;;16.59;55.75;99268.75;1806189;79;21146;-63
2023/04/26 08:43:43;;;;;;;11.10;4.70;;;;;;;16.55;56.48;99285.59;1798924;79;21148;-65
2023/04/26 08:46:15;;;;;;;13.30;5.40;;;;;;;16.51;56.73;99276.98;1774193;81;21548;-63
2023/04/26 08:48:47;;;;;;;9.58;4.72;;;;;;;16.43;57.14;99272.78;1774301;81;21113;-63
2023/04/26 08:51:16;;;;;;;8.23;4.80;;;;;;;16.36;57.57;99289.30;1774177;80;21025;-63
2023/04/26 08:53:45;;;;;;;9.23;4.25;;;;;;;16.26;57.87;99276.22;1774162;81;21037;-62
2023/04/26 08:56:15;;;;;;;9.18;4.72;;;;;;;16.24;58.54;99267.88;1774371;81;21124;-66
2023/04/26 08:58:44;;;;;;;11.93;4.78;;;;;;;16.27;58.70;99266.00;1746872;81;21263;-61
2023/04/26 09:01:14;;;;;;;6.55;4.25;;;;;;;16.30;58.53;99261.33;1772521;80;21025;-63
2023/04/26 09:03:44;;;;;;;9.20;4.53;;;;;;;16.34;58.80;99261.92;1755552;80;21050;-64
2023/04/26 09:06:15;;;;;;;9.75;4.45;;;;;;;16.41;58.83;99267.23;1786054;80;21074;-62
2023/04/26 09:08:44;;;;;;;10.45;4.70;;;;;;;16.45;58.33;99268.37;1786313;80;21039;-62
2023/04/26 09:11:13;;;;;;;10.35;4.90;;;;;;;16.45;58.04;99260.08;1786194;80;21407;-63
2023/04/26 09:13:42;;;;;;;7.95;4.25;;;;;;;16.46;58.12;99264.50;1691010;83;21075;-62
2023/04/26 09:16:10;;;;;;;13.65;4.20;;;;;;;16.50;58.33;99268.41;1718891;83;20988;-62
2023/04/26 09:18:51;;;;;;;13.40;5.47;;;;;;;16.56;58.14;99263.75;1756412;80;21471;-63
2023/04/26 09:21:22;;;;;;;14.47;5.62;;;;;;;16.61;58.22;99263.80;1785981;80;21023;-61
2023/04/26 09:24:05;;;;;;;14.03;4.55;;;;;;;16.67;58.17;99264.98;1718947;83;21060;-63
2023/04/26 09:26:34;;;;;;;10.68;4.53;;;;;;;16.68;57.79;99261.11;1786334;80;21062;-62
2023/04/26 09:29:16;;;;;;;10.43;4.80;;;;;;;16.60;58.32;99268.48;1786342;80;21439;-62
2023/04/26 09:31:49;;;;;;;9.73;5.10;;;;;;;16.55;59.92;99260.70;1785973;80;20992;-63
2023/04/26 09:34:18;;;;;;;10.88;4.58;;;;;;;16.56;62.63;99265.14;1786046;80;21447;-62
2023/04/26 09:36:59;;;;;;;11.00;4.40;;;;;;;16.50;62.19;99278.09;1786151;80;21023;-62
2023/04/26 09:39:38;;;;;;;5.72;3.80;;;;;;;16.37;62.59;99279.91;1784994;80;21016;-62
2023/04/26 09:42:08;;;;;;;6.17;3.83;;;;;;;16.27;64.23;99292.26;1718904;83;21051;-64
2023/04/26 09:44:37;;;;;;;9.53;4.60;;;;;;;16.12;64.83;99290.98;1786111;80;21121;-63
2023/04/26 09:47:12;;;;;;;9.08;4.17;;;;;;;16.00;66.08;99295.83;1719144;83;21063;-61
2023/04/26 09:49:50;;;;;;;8.43;4.40;;;;;;;15.96;67.75;99282.80;1719041;83;21459;-63
2023/04/26 09:52:19;;;;;;;11.53;4.70;;;;;;;15.91;68.23;99284.13;1786149;80;21043;-62
2023/04/26 09:54:50;;;;;;;9.30;4.65;;;;;;;15.89;69.12;99290.45;1786074;80;21043;-61
2023/04/26 09:57:21;;;;;;;8.63;4.90;;;;;;;15.83;70.04;99302.83;1784974;80;21035;-61
2023/04/26 09:59:51;;;;;;;7.03;4.55;;;;;;;15.79;70.46;99298.08;1694676;85;21060;-61
2023/04/26 10:02:25;;;;;;;12.35;4.65;;;;;;;15.76;70.94;99299.44;1776449;80;21519;-61
2023/04/26 10:04:55;;;;;;;9.38;5.05;;;;;;;15.74;71.43;99296.64;1782871;80;21036;-62
2023/04/26 10:07:25;;;;;;;9.48;4.97;;;;;;;15.75;71.72;99301.91;1782718;80;21084;-60
2023/04/26 10:09:53;;;;;;;12.03;4.40;;;;;;;15.74;70.34;99298.02;1782741;80;21072;-60
2023/04/26 10:12:24;;;;;;;8.00;4.28;;;;;;;15.68;70.01;99301.27;1782809;80;21087;-62
2023/04/26 10:14:53;;;;;;;10.68;4.80;;;;;;;15.66;69.76;99301.23;1782920;80;21013;-61
2023/04/26 10:17:23;;;;;;;11.73;4.80;;;;;;;15.63;70.31;99301.75;1782998;80;21021;-61
2023/04/26 10:19:56;;;;;;;8.13;4.72;;;;;;;15.55;70.95;99306.58;1782850;80;21076;-62
2023/04/26 10:22:27;;;;;;;10.45;4.92;;;;;;;15.48;71.24;99310.08;1782790;80;21080;-62
2023/04/26 10:24:56;;;;;;;8.35;4.55;;;;;;;15.42;72.32;99301.44;1782833;80;20977;-61
2023/04/26 10:27:47;;;;;;;15.13;8.38;;;;;;;15.41;73.12;99303.91;1782927;80;21499;-61
2023/04/26 10:30:21;;;;;;;11.83;5.58;;;;;;;15.40;73.31;99305.00;1782648;80;21068;-60
2023/04/26 10:33:02;;;;;;;13.03;5.17;;;;;;;15.47;74.88;99304.27;1783052;80;21017;-62
2023/04/26 10:35:32;;;;;;;10.85;5.87;;;;;;;15.56;75.62;99296.37;1783131;80;21045;-62
2023/04/26 10:38:05;;;;;;;12.23;5.40;;;;;;;15.67;75.99;99294.63;1782842;80;21414;-61
2023/04/26 10:40:37;;;;;;;9.10;5.50;;;;;;;15.74;75.10;99296.64;1782748;80;21072;-62
2023/04/26 10:43:14;;;;;;;8.95;5.42;;;;;;;15.81;75.67;99288.45;1782775;80;21429;-61
2023/04/26 10:45:44;;;;;;;;;;;;;;;15.90;74.30;99288.81;1785699;80;21036;-60
2023/04/26 10:48:21;;;;;;;10.58;5.10;;;;;;;15.96;74.23;99292.47;1782763;80;20211;-60
2023/04/26 10:51:07;;;;;;;8.53;4.42;;;;;;;16.00;73.52;99301.36;1782759;80;21021;-63
2023/04/26 10:53:52;;;;;;;9.10;4.60;;;;;;;16.02;71.05;99299.17;1782830;80;21161;-62
2023/04/26 10:56:30;;;;;;;8.90;4.53;;;;;;;15.94;70.88;99305.16;1782968;80;21040;-61
2023/04/26 10:59:18;;;;;;;9.03;4.70;;;;;;;15.85;71.36;99305.33;1763654;80;21543;-61
2023/04/26 11:01:49;;;;;;;8.05;5.00;;;;;;;15.79;71.38;99311.34;1756706;80;21522;-62
2023/04/26 11:04:18;;;;;;;12.23;6.10;;;;;;;15.75;72.54;99311.58;1725553;80;21414;-61
2023/04/26 11:06:51;;;;;;;7.55;5.00;;;;;;;15.71;73.12;99312.34;1780895;80;21016;-61
2023/04/26 11:09:39;;;;;;;11.08;5.45;;;;;;;15.65;72.86;99313.38;1780815;80;21412;-63
2023/04/26 11:12:13;;;;;;;10.50;5.47;;;;;;;15.58;73.00;99314.92;1780771;80;21008;-61
2023/04/26 11:14:44;;;;;;;10.48;5.47;;;;;;;15.55;73.32;99303.81;1781159;80;21391;-60
2023/04/26 11:17:13;;;;;;;9.43;5.20;;;;;;;15.58;74.43;99311.33;1780893;80;21435;-61
2023/04/26 11:19:42;;;;;;;9.15;5.45;;;;;;;15.58;74.62;99314.09;1781076;80;21020;-62
2023/04/26 11:22:11;;;;;;;9.98;5.40;;;;;;;15.66;75.02;99317.81;1780687;80;21008;-60
2023/04/26 11:24:40;;;;;;;8.43;4.97;;;;;;;15.72;75.13;99298.83;1725457;80;21047;-62
2023/04/26 11:27:11;;;;;;;10.65;5.90;;;;;;;15.80;74.84;99309.42;1686268;84;21474;-60
2023/04/26 11:29:41;;;;;;;10.80;5.35;;;;;;;15.88;75.12;99303.44;1780767;80;21043;-63
2023/04/26 11:32:11;;;;;;;10.32;5.10;;;;;;;15.95;74.73;99305.99;1780801;80;21504;-61
2023/04/26 11:34:40;;;;;;;8.93;5.05;;;;;;;15.93;72.79;99310.39;1780889;80;21019;-61
2023/04/26 11:37:09;;;;;;;10.35;5.95;;;;;;;15.89;72.54;99313.94;1780954;80;21633;-62
2023/04/26 11:39:37;;;;;;;9.70;5.15;;;;;;;15.85;71.90;99311.69;1781046;80;21518;-62
2023/04/26 11:42:07;;;;;;;8.53;5.62;;;;;;;15.84;71.85;99310.57;1714086;84;21063;-61
2023/04/26 11:44:36;;;;;;;8.98;5.30;;;;;;;15.83;71.58;99311.66;1780887;80;21078;-61
2023/04/26 11:47:06;;;;;;;9.53;5.15;;;;;;;15.83;71.89;99320.78;1714178;83;21044;-62
2023/04/26 11:49:36;;;;;;;19.02;9.80;;;;;;;15.77;71.25;99318.22;1781121;80;21051;-63